EW6612 Weather Reports


Display with metric or nautical units.
time (UTC)temp
F
wind
direction
speed
MPH
gust
MPH
rain 1hr
in
rain 24hr
in
rain mn
in
humidity
%
barometer
mb
20190120224840 47 324 2.0 3.0 0.00 0.01 0.00 90 1024.6
20190120223825 47 340 1.0 2.0 0.00 0.01 0.00 90 1024.5
20190120222905 48 340 1.0 3.0 0.00 0.01 0.00 89 1024.5
20190120221844 49 340 2.0 3.0 0.00 0.01 0.00 89 1024.4
20190120220824 49 340 2.0 4.0 0.00 0.01 0.00 89 1024.3
20190120215808 49 319 2.0 5.0 0.00 0.01 0.00 89 1024.2
20190120214749 49 317 2.0 3.0 0.00 0.02 0.00 87 1024.2
20190120213830 51 323 1.0 3.0 0.00 0.02 0.00 85 1024.1
20190120212811 52 61 2.0 6.0 0.00 0.02 0.00 85 1024.2
20190120211753 52 333 4.0 9.0 0.00 0.02 0.00 86 1024.1
20190120210739 52 334 5.0 10.0 0.00 0.02 0.00 86 1024.1
20190120205723 52 336 5.0 10.0 0.00 0.02 0.00 85 1023.9
20190120204706 52 350 5.0 9.0 0.00 0.02 0.00 85 1023.8
20190120203749 52 317 5.0 10.0 0.00 0.02 0.00 84 1023.8
20190120202736 52 336 4.0 9.0 0.00 0.02 0.00 84 1023.9
20190120201714 52 333 5.0 10.0 0.00 0.02 0.00 84 1023.8
20190120200753 52 317 5.0 11.0 0.00 0.02 0.00 84 1023.8
20190120195737 52 9 4.0 11.0 0.00 0.02 0.00 84 1023.8
20190120194719 52 324 4.0 9.0 0.00 0.02 0.00 84 1023.8
20190120193701 52 325 5.0 13.0 0.00 0.02 0.00 84 1023.7
20190120192740 52 355 7.0 13.0 0.00 0.02 0.00 84 1023.6
20190120191722 53 355 6.0 12.0 0.00 0.02 0.00 84 1023.5
20190120190707 53 342 6.0 13.0 0.00 0.02 0.00 84 1023.4
20190120185648 53 339 5.0 11.0 0.00 0.02 0.00 84 1023.2
20190120184733 53 342 6.0 12.0 0.00 0.02 0.00 84 1023.3
20190120183714 53 326 6.0 11.0 0.00 0.02 0.00 84 1023.1
20190120182657 53 351 6.0 11.0 0.00 0.02 0.00 84 1023.0
20190120181641 53 0 5.0 12.0 0.00 0.02 0.00 83 1022.9
20190120180721 53 349 5.0 10.0 0.00 0.02 0.00 83 1022.8
20190120175705 53 347 6.0 14.0 0.00 0.02 0.00 82 1022.7
20190120174646 53 344 7.0 13.0 0.00 0.02 0.00 81 1022.7
20190120173629 53 339 8.0 14.0 0.00 0.02 0.00 80 1022.6
20190120172711 54 331 5.0 11.0 0.00 0.02 0.00 80 1022.5
20190120171653 54 346 8.0 15.0 0.00 0.02 0.00 79 1022.5
20190120170637 55 342 7.0 14.0 0.00 0.02 0.00 78 1022.4
20190120165712 55 350 10.0 20.0 0.00 0.02 0.00 76 1022.3
20190120164704 55 309 11.0 21.0 0.00 0.02 0.00 76 1022.3
20190120163645 56 333 10.0 17.0 0.00 0.02 0.00 75 1022.3
20190120162630 56 313 9.0 16.0 0.00 0.02 0.00 75 1022.3
20190120161617 56 339 10.0 18.0 0.00 0.02 0.00 74 1022.2
20190120160657 56 342 10.0 19.0 0.00 0.02 0.00 74 1022.1
20190120155637 56 340 9.0 15.0 0.00 0.02 0.00 74 1022.1
20190120154620 56 302 11.0 22.0 0.00 0.02 0.00 75 1022.1
20190120153611 56 265 11.0 21.0 0.00 0.02 0.00 74 1022.1
20190120152648 56 348 11.0 21.0 0.00 0.02 0.00 73 1022.1
20190120151631 56 344 10.0 22.0 0.00 0.02 0.00 72 1022.1
20190120150612 57 308 9.0 19.0 0.00 0.03 0.00 71 1022.0
20190120145606 57 338 10.0 18.0 0.00 0.03 0.00 71 1021.9
20190120144638 58 331 9.0 16.0 0.00 0.03 0.00 72 1021.8
20190120143624 57 346 11.0 19.0 0.00 0.03 0.00 72 1021.7
20190120142608 57 355 11.0 21.0 0.00 0.04 0.00 71 1021.8
20190120141600 57 0 12.0 22.0 0.00 0.05 0.00 71 1021.6
20190120140557 57 355 10.0 19.0 0.00 0.05 0.00 72 1021.7
20190120135619 58 5 12.0 23.0 0.00 0.05 0.00 69 1021.8
20190120134600 57 347 11.0 22.0 0.00 0.05 0.00 71 1021.7
20190120133637 58 355 13.0 23.0 0.00 0.05 0.00 67 1021.6
20190120132555 58 355 12.0 20.0 0.00 0.05 0.00 68 1021.6
20190120131606 58 355 11.0 19.0 0.00 0.05 0.00 69 1021.6
20190120130551 58 350 13.0 21.0 0.00 0.05 0.00 66 1021.7
20190120125551 58 13 11.0 21.0 0.00 0.05 0.00 65 1021.8
20190120124553 58 321 12.0 22.0 0.00 0.05 0.00 67 1021.8
20190120123555 58 9 12.0 25.0 0.00 0.05 0.00 66 1022.0
20190120122552 58 326 11.0 22.0 0.00 0.05 0.00 68 1021.9
20190120121613 57 317 12.0 25.0 0.00 0.05 0.00 67 1022.1
20190120120552 57 327 13.0 20.0 0.00 0.05 0.00 68 1022.2
20190120115552 57 355 12.0 23.0 0.00 0.05 0.00 68 1022.2
20190120114625 57 320 11.0 20.0 0.00 0.05 0.00 69 1022.4
20190120113549 57 334 11.0 22.0 0.00 0.05 0.00 67 1022.4
20190120112644 57 323 9.0 21.0 0.00 0.05 0.00 70 1022.4
20190120111546 56 348 13.0 24.0 0.00 0.05 0.00 70 1022.4
20190120110543 56 322 13.0 23.0 0.00 0.06 0.00 69 1022.3
20190120105542 56 319 10.0 19.0 0.00 0.06 0.00 70 1022.2
20190120104634 56 342 10.0 21.0 0.00 0.06 0.00 71 1022.0
20190120103541 56 17 6.0 10.0 0.00 0.06 0.00 74 1021.9
20190120102541 55 336 9.0 17.0 0.00 0.06 0.00 74 1021.7
20190120101639 55 351 9.0 17.0 0.00 0.06 0.00 76 1021.7
20190120100623 55 344 7.0 16.0 0.00 0.06 0.00 77 1021.6
20190120095539 54 355 8.0 15.0 0.00 0.06 0.00 78 1021.3
20190120094535 54 342 7.0 13.0 0.00 0.06 0.00 78 1021.1
20190120093628 54 21 5.0 11.0 0.00 0.06 0.00 79 1021.0
20190120092608 53 348 4.0 10.0 0.00 0.06 0.00 80 1020.8
20190120091533 53 338 6.0 10.0 0.00 0.07 0.00 80 1020.5
20190120090542 52 11 6.0 11.0 0.00 0.07 0.00 81 1020.4
20190120085620 52 323 6.0 12.0 0.00 0.07 0.00 82 1020.3
20190120084602 51 327 5.0 11.0 0.00 0.07 0.00 83 1020.3
20190120083531 51 334 5.0 11.0 0.00 0.07 0.00 84 1020.1
20190120082629 50 348 3.0 8.0 0.00 0.07 0.00 85 1020.1
20190120081614 50 317 2.0 6.0 0.00 0.07 0.00 84 1020.0
20190120080553 50 0 4.0 8.0 0.00 0.07 0.00 84 1019.8
20190120075537 50 346 4.0 9.0 0.00 0.07 0.00 83 1019.7
20190120074619 51 346 4.0 8.0 0.00 0.07 0.00 83 1019.6
20190120073604 51 355 5.0 11.0 0.00 0.08 0.00 82 1019.5
20190120072542 51 345 4.0 8.0 0.00 0.08 0.00 82 1019.3
20190120071527 51 350 3.0 9.0 0.00 0.08 0.00 81 1019.3
20190120070611 51 344 3.0 9.0 0.00 0.08 0.00 80 1019.1
20190120065555 52 329 5.0 10.0 0.00 0.08 0.00 80 1019.0
20190120064534 52 344 5.0 12.0 0.00 0.08 0.00 80 1018.8
20190120063614 52 312 8.0 14.0 0.00 0.08 0.00 79 1018.7
20190120062600 52 346 7.0 14.0 0.00 0.08 0.00 79 1018.5
20190120061543 52 340 6.0 13.0 0.00 0.08 0.00 79 1018.3
20190120060524 52 309 7.0 15.0 0.00 0.08 0.00 79 1018.1
20190120055607 52 314 5.0 12.0 0.00 0.08 0.00 79 1018.0
20190120054549 52 328 6.0 15.0 0.00 0.08 0.00 79 1018.0
20190120053528 52 332 7.0 15.0 0.00 0.08 0.00 80 1017.8
20190120052514 53 327 9.0 18.0 0.00 0.08 0.00 80 1017.7
20190120051556 53 315 9.0 18.0 0.00 0.08 0.00 80 1017.6
20190120050539 53 345 8.0 17.0 0.00 0.08 0.00 80 1017.5
20190120045526 53 5 11.0 19.0 0.00 0.08 0.00 80 1017.3
20190120044603 53 355 10.0 24.0 0.00 0.08 0.00 80 1017.3
20190120043547 53 304 9.0 15.0 0.00 0.08 0.00 81 1017.2
20190120042532 54 305 12.0 19.0 0.00 0.08 0.00 81 1017.1
20190120041516 54 319 11.0 21.0 0.00 0.08 0.00 80 1017.1
20190120040557 54 355 9.0 17.0 0.00 0.08 0.00 81 1017.1
20190120035538 54 32 11.0 25.0 0.00 0.08 0.00 81 1016.9
20190120034519 54 349 12.0 20.0 0.00 0.08 0.00 81 1016.7
20190120033602 54 321 13.0 23.0 0.00 0.08 0.00 82 1016.9
20190120032545 54 327 12.0 24.0 0.00 0.08 0.00 82 1016.9
20190120031530 54 326 12.0 22.0 0.00 0.08 0.00 83 1016.6
20190120030511 54 348 13.0 23.0 0.00 0.08 0.00 83 1016.6
20190120025551 55 316 12.0 26.0 0.00 0.09 0.00 83 1016.5
20190120024535 55 321 10.0 21.0 0.00 0.09 0.00 83 1016.4
20190120023518 55 340 9.0 20.0 0.00 0.09 0.00 84 1016.2
20190120022558 55 9 11.0 20.0 0.00 0.09 0.00 84 1016.0
20190120021539 55 302 10.0 18.0 0.00 0.09 0.00 83 1015.6
20190120020521 55 0 11.0 21.0 0.00 0.09 0.00 81 1015.7
20190120015506 55 333 13.0 23.0 0.00 0.09 0.00 81 1015.6
20190120014543 55 0 14.0 30.0 0.00 0.09 0.00 82 1015.5
20190120013526 55 0 11.0 24.0 0.00 0.09 0.00 83 1015.3
20190120012510 55 10 12.0 21.0 0.00 0.09 0.00 83 1015.3
20190120011550 55 334 10.0 28.0 0.00 0.09 0.00 82 1015.1
20190120010535 55 327 14.0 32.0 0.00 0.09 0.00 83 1015.1
20190120005518 55 314 13.0 24.0 0.00 0.09 0.00 84 1014.9
20190120004501 55 348 12.0 26.0 0.00 0.09 0.00 84 1014.8
20190120003544 55 327 13.0 25.0 0.00 0.09 0.00 86 1014.8
20190120002528 55 315 11.0 23.0 0.00 0.09 0.00 85 1014.7
20190120001509 55 355 12.0 26.0 0.01 0.09 0.00 86 1014.6
20190120000454 55 308 13.0 27.0 0.01 0.09 0.00 89 1014.6
20190119235538 55 324 9.0 16.0 0.01 0.09 0.09 90 1014.5
20190119234520 55 321 11.0 22.0 0.01 0.09 0.09 90 1014.4
20190119233506 55 311 12.0 27.0 0.01 0.09 0.09 90 1014.3
20190119232446 55 296 9.0 16.0 0.01 0.09 0.09 92 1014.2
20190119231528 55 304 13.0 24.0 0.00 0.08 0.08 92 1014.0
20190119230512 56 334 9.0 21.0 0.00 0.08 0.08 92 1013.9
20190119225455 56 323 11.0 21.0 0.00 0.08 0.08 93 1013.7